createdAt,value
2022-07-29T00:00:13.055Z,20.66
2022-07-29T00:02:14.830Z,20.52
2022-07-29T00:04:16.866Z,20.57
2022-07-29T00:06:18.977Z,20.57
2022-07-29T00:08:21.184Z,20.56
2022-07-29T00:10:22.958Z,20.53
2022-07-29T00:12:26.694Z,20.57
2022-07-29T00:14:29.303Z,20.55
2022-07-29T00:16:31.138Z,20.51
2022-07-29T00:18:33.355Z,20.55
2022-07-29T00:20:35.068Z,20.42
2022-07-29T00:22:39.565Z,20.48
2022-07-29T00:24:41.242Z,20.46
2022-07-29T00:26:42.910Z,20.50
2022-07-29T00:28:44.696Z,20.39
2022-07-29T00:30:46.373Z,20.34
2022-07-29T00:32:48.042Z,20.34
2022-07-29T00:35:08.227Z,20.36
2022-07-29T00:37:09.910Z,20.35
2022-07-29T00:39:11.595Z,20.33
2022-07-29T00:41:13.694Z,20.34
2022-07-29T00:43:16.110Z,20.21
2022-07-29T00:45:18.695Z,20.19
2022-07-29T00:47:21.316Z,20.27
2022-07-29T00:49:23.096Z,20.27
2022-07-29T00:51:27.342Z,20.28
2022-07-29T00:53:29.388Z,20.31
2022-07-29T00:55:31.487Z,20.17
2022-07-29T00:57:34.172Z,20.27
2022-07-29T00:59:36.271Z,20.27
2022-07-29T01:01:38.027Z,20.27
2022-07-29T01:03:39.698Z,20.19
2022-07-29T01:05:50.711Z,20.24
2022-07-29T01:08:00.611Z,20.21
2022-07-29T01:10:05.707Z,20.23
2022-07-29T01:12:08.703Z,20.25
2022-07-29T01:14:11.085Z,20.20
2022-07-29T01:16:22.247Z,20.19
2022-07-29T01:18:35.105Z,20.19
2022-07-29T01:20:39.754Z,20.21
2022-07-29T01:23:22.795Z,20.17
2022-07-29T01:25:53.153Z,20.14
2022-07-29T01:28:00.736Z,20.12
2022-07-29T01:30:05.206Z,20.18
2022-07-29T01:32:27.730Z,20.20
2022-07-29T01:34:49.721Z,20.14
2022-07-29T01:37:01.100Z,20.13
2022-07-29T01:39:06.713Z,20.16
2022-07-29T01:41:15.690Z,20.09
2022-07-29T01:43:24.664Z,19.97
2022-07-29T01:45:52.591Z,20.09
2022-07-29T01:48:05.840Z,20.07
2022-07-29T01:50:12.968Z,20.03
2022-07-29T01:52:22.949Z,20.08
2022-07-29T01:54:38.849Z,20.06
2022-07-29T01:56:43.934Z,20.06
2022-07-29T01:58:47.467Z,20.06
2022-07-29T02:00:51.123Z,20.07
2022-07-29T02:02:55.414Z,20.08
2022-07-29T02:04:58.303Z,20.06
2022-07-29T02:07:04.726Z,20.04
2022-07-29T02:09:08.272Z,20.02
2022-07-29T02:11:10.391Z,20.03
2022-07-29T02:13:14.120Z,20.04
2022-07-29T02:15:17.820Z,19.95
2022-07-29T02:17:32.322Z,19.96
2022-07-29T02:19:35.306Z,19.96
2022-07-29T02:21:37.817Z,19.93
2022-07-29T02:23:50.513Z,19.92
2022-07-29T02:25:57.118Z,19.92
2022-07-29T02:28:01.905Z,19.92
2022-07-29T02:30:04.802Z,19.86
2022-07-29T02:32:09.537Z,19.87
2022-07-29T02:34:13.185Z,19.84
2022-07-29T02:36:17.117Z,19.84
2022-07-29T02:38:39.804Z,19.78
2022-07-29T02:40:44.769Z,19.78
2022-07-29T02:42:48.187Z,19.72
2022-07-29T02:44:50.399Z,19.67
2022-07-29T02:46:57.206Z,19.67
2022-07-29T02:49:08.116Z,19.71
2022-07-29T02:51:43.538Z,19.66
2022-07-29T02:53:55.353Z,19.64
2022-07-29T02:56:05.512Z,19.64
2022-07-29T02:58:16.799Z,19.66
2022-07-29T03:00:19.102Z,19.63
2022-07-29T03:02:22.250Z,19.64
2022-07-29T03:04:27.183Z,19.59
2022-07-29T03:06:37.986Z,19.63
2022-07-29T03:08:41.329Z,19.63
2022-07-29T03:10:46.695Z,19.60
2022-07-29T03:12:49.552Z,19.60
2022-07-29T03:14:51.971Z,19.60
2022-07-29T03:16:54.295Z,19.59
2022-07-29T03:18:56.686Z,19.56
2022-07-29T03:20:58.931Z,19.53
2022-07-29T03:23:00.701Z,19.54
2022-07-29T03:25:09.808Z,19.54
2022-07-29T03:27:11.680Z,19.52
2022-07-29T03:29:13.531Z,19.50
2022-07-29T03:31:15.917Z,19.50
2022-07-29T03:33:17.799Z,19.47
2022-07-29T03:35:22.108Z,19.46
2022-07-29T03:37:23.820Z,19.44
2022-07-29T03:39:30.786Z,19.42
2022-07-29T03:41:33.789Z,19.42
2022-07-29T03:43:38.720Z,19.39
2022-07-29T03:45:54.578Z,19.36
2022-07-29T03:48:02.272Z,19.32
2022-07-29T03:50:10.787Z,19.31
2022-07-29T03:52:12.681Z,19.31
2022-07-29T03:54:15.147Z,19.30
2022-07-29T03:56:21.065Z,19.31
2022-07-29T03:58:24.386Z,19.25
2022-07-29T04:00:28.032Z,19.21
2022-07-29T04:02:30.845Z,19.23
2022-07-29T04:04:36.468Z,19.19
2022-07-29T04:06:42.317Z,19.15
2022-07-29T04:08:44.273Z,19.14
2022-07-29T04:10:46.163Z,19.13
2022-07-29T04:12:48.085Z,19.13
2022-07-29T04:14:51.316Z,19.12
2022-07-29T04:16:54.133Z,19.17
2022-07-29T04:18:56.012Z,19.15
2022-07-29T04:21:00.230Z,19.08
2022-07-29T04:23:02.063Z,19.14
2022-07-29T04:25:04.670Z,19.12
2022-07-29T04:27:06.640Z,19.12
2022-07-29T04:29:08.656Z,19.10
2022-07-29T04:31:11.469Z,19.12
2022-07-29T04:33:13.404Z,19.13
2022-07-29T04:35:15.217Z,19.11
2022-07-29T04:37:17.113Z,19.13
2022-07-29T04:39:23.043Z,19.10
2022-07-29T04:41:32.553Z,19.09
2022-07-29T04:43:36.957Z,19.07
2022-07-29T04:45:39.423Z,19.10
2022-07-29T04:47:42.020Z,19.06
2022-07-29T04:49:43.987Z,19.05
2022-07-29T04:51:45.777Z,18.98
2022-07-29T04:53:58.650Z,19.00
2022-07-29T04:56:00.524Z,19.00
2022-07-29T04:58:02.406Z,19.01
2022-07-29T05:00:06.307Z,19.02
2022-07-29T05:02:08.616Z,19.03
2022-07-29T05:04:10.450Z,19.02
2022-07-29T05:06:12.453Z,19.06
2022-07-29T05:08:14.311Z,19.02
2022-07-29T05:10:15.993Z,19.04
2022-07-29T05:12:17.730Z,19.02
2022-07-29T05:14:20.175Z,19.03
2022-07-29T05:16:22.777Z,19.06
2022-07-29T05:18:26.038Z,19.08
2022-07-29T05:20:29.902Z,19.10
2022-07-29T05:22:31.619Z,19.04
2022-07-29T05:24:33.459Z,19.03
2022-07-29T05:26:35.376Z,19.07
2022-07-29T05:28:37.093Z,18.98
2022-07-29T05:30:39.050Z,19.07
2022-07-29T05:32:41.060Z,19.10
2022-07-29T05:34:51.354Z,19.11
2022-07-29T05:36:53.556Z,19.15
2022-07-29T05:38:55.243Z,19.19
2022-07-29T05:40:59.677Z,19.14
2022-07-29T05:43:01.895Z,19.20
2022-07-29T05:45:04.504Z,19.23
2022-07-29T05:47:07.512Z,19.27
2022-07-29T05:49:10.227Z,19.29
2022-07-29T05:51:28.500Z,19.26
2022-07-29T05:53:30.223Z,19.32
2022-07-29T05:55:32.169Z,19.36
2022-07-29T05:57:34.209Z,19.33
2022-07-29T05:59:39.092Z,19.36
2022-07-29T06:01:41.174Z,19.39
2022-07-29T06:03:43.140Z,19.41
2022-07-29T06:05:44.890Z,19.48
2022-07-29T06:07:50.650Z,19.50
2022-07-29T06:09:53.571Z,19.55
2022-07-29T06:11:55.393Z,19.58
2022-07-29T06:13:58.419Z,19.62
2022-07-29T06:16:00.288Z,19.68
2022-07-29T06:18:02.611Z,19.73
2022-07-29T06:20:05.057Z,19.71
2022-07-29T06:22:06.921Z,19.76
2022-07-29T06:24:08.679Z,19.80
2022-07-29T06:26:10.534Z,19.83
2022-07-29T06:28:13.165Z,19.83
2022-07-29T06:30:15.208Z,19.93
2022-07-29T06:32:16.929Z,19.92
2022-07-29T06:34:19.256Z,19.94
2022-07-29T06:36:22.949Z,19.95
2022-07-29T06:38:31.140Z,19.97
2022-07-29T06:40:52.829Z,19.96
2022-07-29T06:42:54.943Z,20.05
2022-07-29T06:44:58.130Z,20.03
2022-07-29T06:47:00.876Z,20.04
2022-07-29T06:49:03.636Z,20.11
2022-07-29T06:51:07.134Z,20.19
2022-07-29T06:53:08.917Z,20.25
2022-07-29T06:55:11.035Z,20.30
2022-07-29T06:57:27.402Z,20.34
2022-07-29T06:59:35.109Z,20.32
2022-07-29T07:01:39.219Z,20.26
2022-07-29T07:03:41.155Z,20.37
2022-07-29T07:05:43.097Z,20.29
2022-07-29T07:07:44.809Z,20.28
2022-07-29T07:09:46.508Z,20.30
2022-07-29T07:11:49.510Z,20.35
2022-07-29T07:14:00.786Z,20.37
2022-07-29T07:16:05.787Z,20.34
2022-07-29T07:18:07.805Z,20.41
2022-07-29T07:20:09.977Z,20.48
2022-07-29T07:22:11.719Z,20.51
2022-07-29T07:24:14.090Z,20.52
2022-07-29T07:26:16.637Z,20.55
2022-07-29T07:28:18.353Z,20.55
2022-07-29T07:30:26.708Z,20.58
2022-07-29T07:32:28.448Z,20.59
2022-07-29T07:34:31.619Z,20.57
2022-07-29T07:36:33.856Z,20.59
2022-07-29T07:38:36.878Z,20.61
2022-07-29T07:40:38.664Z,20.62
2022-07-29T07:42:41.802Z,20.64
2022-07-29T07:45:12.211Z,20.67
2022-07-29T07:47:08.613Z,20.62
2022-07-29T07:49:14.270Z,20.62
2022-07-29T07:51:16.149Z,20.68
2022-07-29T07:53:18.059Z,20.69
2022-07-29T07:55:20.893Z,20.73
2022-07-29T07:57:22.628Z,20.76
2022-07-29T07:59:24.586Z,20.75
2022-07-29T08:01:26.353Z,20.81
2022-07-29T08:03:28.336Z,20.83
2022-07-29T08:05:30.392Z,20.83
2022-07-29T08:07:35.631Z,20.82
2022-07-29T08:09:37.535Z,20.85
2022-07-29T08:11:39.525Z,20.90
2022-07-29T08:13:57.586Z,20.93
2022-07-29T08:16:02.158Z,20.97
2022-07-29T08:18:08.687Z,21.00
2022-07-29T08:20:11.354Z,21.04
2022-07-29T08:22:13.205Z,21.09
2022-07-29T08:24:33.592Z,21.09
2022-07-29T08:26:35.510Z,21.16
2022-07-29T08:28:39.582Z,21.15
2022-07-29T08:30:42.060Z,21.17
2022-07-29T08:32:53.784Z,21.25
2022-07-29T08:34:56.694Z,21.30
2022-07-29T08:36:58.579Z,21.35
2022-07-29T08:39:01.268Z,21.36
2022-07-29T08:41:03.152Z,21.42
2022-07-29T08:43:11.288Z,21.43
2022-07-29T08:45:13.704Z,21.49
2022-07-29T08:47:15.985Z,21.48
2022-07-29T08:49:19.852Z,21.56
2022-07-29T08:51:23.928Z,21.63
2022-07-29T08:53:28.180Z,21.65
2022-07-29T08:55:30.517Z,21.60
2022-07-29T08:57:34.682Z,21.68
2022-07-29T08:59:42.307Z,21.67
2022-07-29T09:01:45.813Z,21.67
2022-07-29T09:04:00.293Z,21.77
2022-07-29T09:06:03.342Z,21.81
2022-07-29T09:08:06.394Z,21.84
2022-07-29T09:10:09.483Z,21.94
2022-07-29T09:12:13.141Z,22.05
2022-07-29T09:14:31.417Z,22.09
2022-07-29T09:16:55.857Z,22.19
2022-07-29T09:18:59.951Z,22.24
2022-07-29T09:21:21.032Z,22.31
2022-07-29T09:23:24.994Z,22.39
2022-07-29T09:25:37.837Z,22.54
2022-07-29T09:27:39.750Z,22.59
2022-07-29T09:29:41.524Z,22.70
2022-07-29T09:31:46.326Z,22.80
2022-07-29T09:34:03.434Z,22.95
2022-07-29T09:36:08.070Z,23.01
2022-07-29T09:38:14.587Z,23.14
2022-07-29T09:40:29.482Z,23.20
2022-07-29T09:42:33.786Z,23.25
2022-07-29T09:44:53.654Z,23.35
2022-07-29T09:47:07.264Z,23.41
2022-07-29T09:49:13.902Z,23.56
2022-07-29T09:51:26.961Z,23.69
2022-07-29T09:53:38.307Z,23.86
2022-07-29T09:55:51.872Z,24.05
2022-07-29T09:57:54.763Z,24.14
2022-07-29T10:00:11.370Z,24.23
2022-07-29T10:02:17.749Z,24.36
2022-07-29T10:04:23.869Z,24.54
2022-07-29T10:06:25.667Z,24.63
2022-07-29T10:08:28.242Z,24.79
2022-07-29T10:10:33.130Z,24.94
2022-07-29T10:12:49.004Z,25.10
2022-07-29T10:14:51.832Z,25.22
2022-07-29T10:16:55.202Z,25.32
2022-07-29T10:18:57.511Z,25.51
2022-07-29T10:21:02.551Z,25.62
2022-07-29T10:23:05.045Z,25.77
2022-07-29T10:25:06.926Z,25.94
2022-07-29T10:27:10.249Z,26.01
2022-07-29T10:29:12.018Z,26.11
2022-07-29T10:31:27.583Z,26.19
2022-07-29T10:34:01.536Z,26.28
2022-07-29T10:36:33.827Z,26.41
2022-07-29T10:38:56.695Z,26.50
2022-07-29T10:41:23.143Z,26.62
2022-07-29T10:43:33.881Z,26.73
2022-07-29T10:45:37.537Z,26.79
2022-07-29T10:47:39.288Z,26.85
2022-07-29T10:49:57.118Z,26.91
2022-07-29T10:52:01.992Z,26.83
2022-07-29T10:54:06.682Z,27.02
2022-07-29T10:56:25.515Z,26.83
2022-07-29T10:58:27.362Z,26.89
2022-07-29T11:00:31.959Z,27.04
2022-07-29T11:02:41.523Z,27.17
2022-07-29T11:04:45.131Z,27.23
2022-07-29T11:07:03.982Z,27.30
2022-07-29T11:09:25.727Z,27.40
2022-07-29T11:11:38.001Z,27.50
2022-07-29T11:14:04.066Z,27.60
2022-07-29T11:16:07.836Z,27.53
2022-07-29T11:18:14.877Z,27.73
2022-07-29T11:20:43.481Z,27.81
2022-07-29T11:25:19.298Z,27.88
2022-07-29T11:27:41.157Z,27.99
2022-07-29T11:29:57.266Z,28.06
2022-07-29T11:32:18.243Z,28.14
2022-07-29T11:34:29.661Z,28.23
2022-07-29T11:36:31.589Z,28.27
2022-07-29T11:38:34.620Z,28.30
2022-07-29T11:40:37.054Z,28.28
2022-07-29T11:42:42.007Z,28.21
2022-07-29T11:45:40.356Z,28.02
2022-07-29T11:47:25.467Z,28.03
2022-07-29T11:49:32.224Z,28.18
2022-07-29T11:52:02.667Z,28.25
2022-07-29T11:54:05.660Z,28.36
2022-07-29T11:56:25.598Z,28.58
2022-07-29T11:58:29.553Z,28.74
2022-07-29T12:00:40.806Z,28.90
2022-07-29T12:02:44.408Z,28.94
2022-07-29T12:04:55.635Z,28.78
2022-07-29T12:07:00.451Z,28.94
2022-07-29T12:09:08.818Z,29.06
2022-07-29T12:11:22.787Z,29.13
2022-07-29T12:13:37.773Z,29.08
2022-07-29T12:15:46.107Z,29.22
2022-07-29T12:17:49.271Z,29.40
2022-07-29T12:19:51.289Z,29.48
2022-07-29T12:21:56.497Z,29.59
2022-07-29T12:24:05.973Z,29.66
2022-07-29T12:26:25.384Z,29.58
2022-07-29T12:28:28.231Z,29.68
2022-07-29T12:30:42.025Z,29.74
2022-07-29T12:32:48.559Z,29.83
2022-07-29T12:34:51.570Z,29.90
2022-07-29T12:36:53.457Z,30.01
2022-07-29T12:38:55.302Z,30.10
2022-07-29T12:40:58.797Z,30.15
2022-07-29T12:43:10.913Z,30.21
2022-07-29T12:45:12.592Z,30.29
2022-07-29T12:47:14.838Z,30.35
2022-07-29T12:49:23.890Z,30.45
2022-07-29T12:51:39.721Z,30.56
2022-07-29T12:53:41.575Z,30.44
2022-07-29T12:55:55.330Z,30.57
2022-07-29T12:57:57.040Z,30.52
2022-07-29T13:00:04.971Z,30.45
2022-07-29T13:02:07.796Z,30.24
2022-07-29T13:04:09.855Z,30.08
2022-07-29T13:06:46.185Z,29.88
2022-07-29T13:09:04.786Z,29.64
2022-07-29T13:11:06.721Z,29.31
2022-07-29T13:13:11.482Z,29.18
2022-07-29T13:15:16.043Z,29.07
2022-07-29T13:17:28.419Z,29.15
2022-07-29T13:19:43.033Z,29.27
2022-07-29T13:21:46.507Z,29.36
2022-07-29T13:23:59.845Z,29.37
2022-07-29T13:26:09.265Z,29.56
2022-07-29T13:28:12.673Z,29.81
2022-07-29T13:30:14.803Z,30.11
2022-07-29T13:32:16.705Z,30.15
2022-07-29T13:34:20.572Z,30.38
2022-07-29T13:36:22.512Z,30.46
2022-07-29T13:38:31.016Z,30.63
2022-07-29T13:40:34.917Z,30.72
2022-07-29T13:42:37.180Z,30.73
2022-07-29T13:44:39.166Z,30.72
2022-07-29T13:46:43.334Z,30.73
2022-07-29T13:48:45.082Z,30.61
2022-07-29T13:50:48.036Z,30.51
2022-07-29T13:52:51.624Z,30.40
2022-07-29T13:54:53.448Z,30.26
2022-07-29T13:56:55.402Z,30.16
2022-07-29T13:58:58.280Z,30.20
2022-07-29T14:01:00.843Z,30.15
2022-07-29T14:03:02.741Z,30.17
2022-07-29T14:05:08.259Z,30.12
2022-07-29T14:07:11.086Z,30.16
2022-07-29T14:09:18.414Z,30.20
2022-07-29T14:11:20.612Z,30.38
2022-07-29T14:13:24.867Z,30.53
2022-07-29T14:15:28.331Z,30.74
2022-07-29T14:17:30.092Z,30.81
2022-07-29T14:19:33.397Z,31.00
2022-07-29T14:21:35.796Z,31.19
2022-07-29T14:23:38.888Z,31.50
2022-07-29T14:25:44.516Z,31.70
2022-07-29T14:27:46.577Z,31.71
2022-07-29T14:29:48.707Z,31.57
2022-07-29T14:31:50.484Z,31.45
2022-07-29T14:34:02.742Z,31.44
2022-07-29T14:36:04.972Z,31.17
2022-07-29T14:38:06.723Z,31.14
2022-07-29T14:40:10.280Z,31.13
2022-07-29T14:42:13.090Z,30.88
2022-07-29T14:44:14.914Z,30.74
2022-07-29T14:46:16.703Z,30.68
2022-07-29T14:48:18.857Z,30.60
2022-07-29T14:50:23.278Z,30.50
2022-07-29T14:52:33.690Z,30.36
2022-07-29T14:54:35.430Z,30.22
2022-07-29T14:56:37.793Z,30.16
2022-07-29T14:58:51.554Z,30.14
2022-07-29T15:00:55.761Z,30.18
2022-07-29T15:03:02.209Z,30.50
2022-07-29T15:05:13.166Z,30.81
2022-07-29T15:07:15.267Z,31.06
2022-07-29T15:09:17.100Z,31.10
2022-07-29T15:11:18.898Z,31.11
2022-07-29T15:13:20.775Z,31.13
2022-07-29T15:15:22.719Z,31.01
2022-07-29T15:17:24.722Z,30.95
2022-07-29T15:19:26.843Z,30.87
2022-07-29T15:21:28.814Z,30.81
2022-07-29T15:23:30.731Z,30.65
2022-07-29T15:25:34.091Z,30.46
2022-07-29T15:27:36.057Z,30.39
2022-07-29T15:29:38.042Z,30.23
2022-07-29T15:31:40.112Z,30.07
2022-07-29T15:33:43.186Z,29.93
2022-07-29T15:35:44.897Z,29.84
2022-07-29T15:37:48.876Z,29.70
2022-07-29T15:39:51.548Z,29.60
2022-07-29T15:41:56.346Z,29.48
2022-07-29T15:44:03.927Z,29.39
2022-07-29T15:46:24.539Z,29.29
2022-07-29T15:48:27.008Z,29.18
2022-07-29T15:50:28.780Z,29.07
2022-07-29T15:52:31.246Z,28.98
2022-07-29T15:54:35.019Z,28.92
2022-07-29T15:56:37.418Z,28.86
2022-07-29T15:58:39.384Z,28.81
2022-07-29T16:00:41.401Z,28.72
2022-07-29T16:02:43.364Z,28.71
2022-07-29T16:04:45.182Z,28.54
2022-07-29T16:06:48.415Z,28.47
2022-07-29T16:08:50.254Z,28.40
2022-07-29T16:10:52.792Z,28.37
2022-07-29T16:12:54.618Z,28.19
2022-07-29T16:14:57.295Z,28.12
2022-07-29T16:17:02.252Z,28.02
2022-07-29T16:19:05.119Z,27.99
2022-07-29T16:21:06.815Z,28.05
2022-07-29T16:23:12.408Z,28.06
2022-07-29T16:25:14.426Z,28.09
2022-07-29T16:27:16.760Z,28.13
2022-07-29T16:29:19.459Z,28.17
2022-07-29T16:31:23.195Z,28.25
2022-07-29T16:33:25.398Z,28.28
2022-07-29T16:35:39.769Z,28.31
2022-07-29T16:37:42.500Z,28.33
2022-07-29T16:39:44.838Z,28.36
2022-07-29T16:41:47.042Z,28.34
2022-07-29T16:44:05.497Z,28.22
2022-07-29T16:46:12.495Z,28.27
2022-07-29T16:48:20.600Z,28.29
2022-07-29T16:50:22.458Z,28.28
2022-07-29T16:52:24.819Z,28.26
2022-07-29T16:54:31.047Z,28.25
2022-07-29T16:56:33.572Z,28.16
2022-07-29T16:58:43.322Z,28.15
2022-07-29T17:01:12.971Z,28.16
2022-07-29T17:03:15.878Z,28.14
2022-07-29T17:05:18.698Z,28.13
2022-07-29T17:07:22.297Z,28.12
2022-07-29T17:09:24.507Z,28.10
2022-07-29T17:11:53.961Z,28.02
2022-07-29T17:14:00.316Z,28.02
2022-07-29T17:16:02.341Z,27.99
2022-07-29T17:18:12.199Z,27.87
2022-07-29T17:20:14.909Z,27.86
2022-07-29T17:22:20.151Z,27.85
2022-07-29T17:24:22.002Z,27.83
2022-07-29T17:26:28.345Z,27.81
2022-07-29T17:28:30.290Z,27.79
2022-07-29T17:30:32.358Z,27.78
2022-07-29T17:32:38.644Z,27.71
2022-07-29T17:34:42.799Z,27.71
2022-07-29T17:36:44.936Z,27.66
2022-07-29T17:38:46.771Z,27.66
2022-07-29T17:40:49.342Z,27.64
2022-07-29T17:42:51.590Z,27.63
2022-07-29T17:44:53.312Z,27.63
2022-07-29T17:46:55.223Z,27.63
2022-07-29T17:48:57.672Z,27.63
2022-07-29T17:50:59.514Z,27.64
2022-07-29T17:53:02.456Z,27.57
2022-07-29T17:55:13.412Z,27.59
2022-07-29T17:57:15.309Z,27.63
2022-07-29T17:59:17.269Z,27.64
2022-07-29T18:01:19.520Z,27.66
2022-07-29T18:03:21.939Z,27.67
2022-07-29T18:05:23.840Z,27.64
2022-07-29T18:07:25.735Z,27.64
2022-07-29T18:09:27.618Z,27.61
2022-07-29T18:11:31.870Z,27.58
2022-07-29T18:13:33.933Z,27.48
2022-07-29T18:15:36.162Z,27.42
2022-07-29T18:17:56.803Z,27.33
2022-07-29T18:19:59.600Z,27.18
2022-07-29T18:22:05.361Z,27.00
2022-07-29T18:24:07.885Z,27.02
2022-07-29T18:26:10.562Z,26.98
2022-07-29T18:28:12.873Z,26.89
2022-07-29T18:30:17.341Z,26.89
2022-07-29T18:32:19.701Z,26.89
2022-07-29T18:34:31.094Z,26.80
2022-07-29T18:36:32.783Z,26.78
2022-07-29T18:38:34.777Z,26.76
2022-07-29T18:40:38.788Z,26.61
2022-07-29T18:42:43.733Z,26.56
2022-07-29T18:44:49.027Z,26.32
2022-07-29T18:46:52.841Z,26.24
2022-07-29T18:48:57.399Z,26.32
2022-07-29T18:50:59.175Z,26.24
2022-07-29T18:53:02.258Z,26.16
2022-07-29T18:55:04.385Z,26.07
2022-07-29T18:57:56.343Z,25.99
2022-07-29T18:59:28.093Z,25.89
2022-07-29T19:01:31.687Z,25.86
2022-07-29T19:03:34.460Z,25.82
2022-07-29T19:05:36.322Z,25.87
2022-07-29T19:07:39.486Z,25.75
2022-07-29T19:09:49.602Z,25.70
2022-07-29T19:11:55.731Z,25.74
2022-07-29T19:13:58.168Z,25.66
2022-07-29T19:16:00.007Z,25.60
2022-07-29T19:18:01.787Z,25.66
2022-07-29T19:20:03.872Z,25.59
2022-07-29T19:22:06.684Z,25.55
2022-07-29T19:24:13.592Z,25.42
2022-07-29T19:26:20.328Z,25.45
2022-07-29T19:28:23.738Z,25.48
2022-07-29T19:30:26.576Z,25.39
2022-07-29T19:32:31.105Z,25.33
2022-07-29T19:34:34.113Z,25.16
2022-07-29T19:36:37.284Z,25.08
2022-07-29T19:38:40.911Z,25.13
2022-07-29T19:40:43.964Z,25.06
2022-07-29T19:42:48.818Z,25.01
2022-07-29T19:44:52.004Z,25.01
2022-07-29T19:46:54.687Z,25.00
2022-07-29T19:48:57.849Z,25.06
2022-07-29T19:51:00.422Z,24.94
2022-07-29T19:53:03.186Z,24.89
2022-07-29T19:55:07.805Z,24.94
2022-07-29T19:57:09.895Z,24.90
2022-07-29T19:59:11.898Z,24.80
2022-07-29T20:01:14.148Z,24.76
2022-07-29T20:03:15.913Z,24.75
2022-07-29T20:05:18.465Z,24.65
2022-07-29T20:07:20.358Z,24.67
2022-07-29T20:09:22.064Z,24.57
2022-07-29T20:11:24.016Z,24.52
2022-07-29T20:13:25.910Z,24.54
2022-07-29T20:15:27.651Z,24.54
2022-07-29T20:17:29.434Z,24.43
2022-07-29T20:19:32.373Z,24.37
2022-07-29T20:21:34.105Z,24.41
2022-07-29T20:23:36.063Z,24.38
2022-07-29T20:25:38.509Z,24.40
2022-07-29T20:27:40.723Z,24.37
2022-07-29T20:29:42.574Z,24.29
2022-07-29T20:31:45.706Z,24.09
2022-07-29T20:33:55.068Z,24.20
2022-07-29T20:35:56.798Z,24.13
2022-07-29T20:37:59.866Z,24.05
2022-07-29T20:40:03.006Z,24.04
2022-07-29T20:42:05.198Z,24.08
2022-07-29T20:44:07.258Z,24.06
2022-07-29T20:46:10.112Z,23.97
2022-07-29T20:48:13.625Z,24.06
2022-07-29T20:50:15.594Z,24.00
2022-07-29T20:52:19.585Z,23.95
2022-07-29T20:54:21.341Z,23.93
2022-07-29T20:56:23.207Z,23.91
2022-07-29T20:58:25.148Z,23.90
2022-07-29T21:00:27.081Z,23.84
2022-07-29T21:02:28.904Z,23.85
2022-07-29T21:04:32.667Z,23.75
2022-07-29T21:06:35.115Z,23.79
2022-07-29T21:08:37.559Z,23.73
2022-07-29T21:10:39.442Z,23.70
2022-07-29T21:12:42.139Z,23.75
2022-07-29T21:14:48.103Z,23.68
2022-07-29T21:16:50.455Z,23.67
2022-07-29T21:18:53.385Z,23.67
2022-07-29T21:20:55.429Z,23.56
2022-07-29T21:22:58.132Z,23.61
2022-07-29T21:25:00.212Z,23.56
2022-07-29T21:27:21.745Z,23.44
2022-07-29T21:29:23.775Z,23.40
2022-07-29T21:31:27.120Z,23.50
2022-07-29T21:33:30.360Z,23.42
2022-07-29T21:36:14.937Z,23.36
2022-07-29T21:37:53.968Z,23.39
2022-07-29T21:39:55.747Z,23.31
2022-07-29T21:41:57.713Z,23.35
2022-07-29T21:43:59.623Z,23.29
2022-07-29T21:46:03.308Z,23.28
2022-07-29T21:48:06.487Z,23.25
2022-07-29T21:50:09.988Z,23.30
2022-07-29T21:52:11.770Z,23.22
2022-07-29T21:54:14.380Z,23.08
2022-07-29T21:56:16.103Z,23.17
2022-07-29T21:58:21.331Z,23.18
2022-07-29T22:00:25.640Z,23.15
2022-07-29T22:02:27.538Z,23.15
2022-07-29T22:04:30.456Z,23.12
2022-07-29T22:06:34.609Z,23.15
2022-07-29T22:08:36.619Z,23.10
2022-07-29T22:10:38.552Z,23.04
2022-07-29T22:12:40.298Z,23.11
2022-07-29T22:14:42.237Z,23.04
2022-07-29T22:16:45.655Z,23.13
2022-07-29T22:18:48.434Z,23.01
2022-07-29T22:20:50.424Z,23.07
2022-07-29T22:22:53.074Z,23.03
2022-07-29T22:24:55.890Z,22.95
2022-07-29T22:26:58.075Z,22.89
2022-07-29T22:29:00.238Z,22.79
2022-07-29T22:31:02.129Z,22.74
2022-07-29T22:33:04.047Z,22.74
2022-07-29T22:35:06.211Z,22.77
2022-07-29T22:37:08.246Z,22.75
2022-07-29T22:39:09.981Z,22.71
2022-07-29T22:41:11.820Z,22.69
2022-07-29T22:43:17.490Z,22.62
2022-07-29T22:45:19.260Z,22.56
2022-07-29T22:47:38.709Z,22.59
2022-07-29T22:49:42.981Z,22.61
2022-07-29T22:51:44.686Z,22.60
2022-07-29T22:53:53.484Z,22.48
2022-07-29T22:55:55.257Z,22.48
2022-07-29T22:57:57.030Z,22.42
2022-07-29T23:00:01.709Z,22.24
2022-07-29T23:02:03.656Z,22.33
2022-07-29T23:04:06.388Z,22.29
2022-07-29T23:06:08.326Z,22.25
2022-07-29T23:08:10.063Z,22.21
2022-07-29T23:10:11.992Z,22.19
2022-07-29T23:12:13.856Z,22.15
2022-07-29T23:14:15.648Z,22.07
2022-07-29T23:16:26.601Z,22.13
2022-07-29T23:18:28.838Z,22.10
2022-07-29T23:20:30.560Z,22.03
2022-07-29T23:22:32.308Z,22.07
2022-07-29T23:24:34.121Z,22.05
2022-07-29T23:26:36.990Z,21.97
2022-07-29T23:28:38.735Z,21.97
2022-07-29T23:30:41.550Z,22.00
2022-07-29T23:32:43.314Z,21.99
2022-07-29T23:34:45.043Z,21.98
2022-07-29T23:36:46.876Z,21.94
2022-07-29T23:38:49.009Z,21.86
2022-07-29T23:40:51.214Z,21.92
2022-07-29T23:42:53.103Z,21.86
2022-07-29T23:44:54.862Z,21.94
2022-07-29T23:46:56.616Z,21.91
2022-07-29T23:48:58.452Z,21.88
2022-07-29T23:51:01.235Z,21.90
2022-07-29T23:53:02.980Z,21.84
2022-07-29T23:55:37.637Z,21.91
2022-07-29T23:57:27.540Z,21.88
2022-07-29T23:59:29.257Z,21.95
